Home > Products > Valid Products > TAF

000
FTUS44 KCRP 050500
TAFLRD
TAF
KLRD 050525Z 0506/0606 01023G34KT P6SM SHRA OVC010
     FM051400 36020G27KT P6SM BKN012 OVC025
     FM051700 35017G24KT P6SM BKN020 OVC030
     FM060100 36015KT P6SM SCT040 BKN060=



000
FTUS44 KCRP 050500
TAFALI
TAF
KALI 050525Z 0506/0606 36022G32KT 6SM -SHRA BR BKN010 OVC015
      TEMPO 0506/0510 3SM RA BR OVC008
     FM051500 01022G32KT P6SM VCSH BKN012 OVC028
     FM051900 35019G26KT P6SM SCT012 OVC020
     FM052300 36016KT P6SM SCT030 OVC050=



000
FTUS44 KCRP 050500
TAFVCT
TAF
KVCT 050525Z 0506/0606 35022G32KT 6SM SHRA BKN010 OVC015
      TEMPO 0506/0510 3SM RA BR OVC008
     FM051400 36023G29KT P6SM BKN012 OVC028
     FM051900 36018G25KT P6SM BKN020 OVC050
     FM060000 01015KT P6SM BKN050 BKN250=



000
FTUS44 KCRP 050500
TAFCRP
TAF
KCRP 050525Z 0506/0606 36025G35KT 6SM BR VCSH BKN005 OVC009
      TEMPO 0506/0509 2SM RA BR OVC005
     FM050900 36027G35KT 6SM SHRA BR BKN010 OVC011
     FM051500 36025G35KT P6SM VCSH BKN012 OVC028
     FM051900 35019G26KT P6SM SCT012 BKN025 OVC050
     FM060000 36015KT P6SM SCT020 BKN040 OVC100=



000
FTUS44 KCRP 050400 AAB
TAFALI
TAF AMD
KALI 050425Z 0504/0524 01020G28KT 6SM BR VCSH OVC006
     FM050600 36022G32KT 6SM SHRA BR BKN010 OVC015
     FM051500 01022G32KT P6SM VCSH BKN012 OVC028
     FM051900 35019G26KT P6SM SCT012 OVC020=



000
FTUS44 KCRP 050400 AAB
TAFALI
TAF AMD
KALI 050425Z 0504/0524 01020G28KT 6SM BR VCSH OVC006
     FM050600 36022G32KT 6SM SHRA BR BKN010 OVC015
     FM051500 01022G32KT P6SM VCSH BKN012 OVC028
     FM051900 35019G26KT P6SM SCT012 OVC020=



000
FTUS44 KCRP 050400 AAA
TAFCRP
TAF AMD
KCRP 050418Z 0504/0524 36025G35KT 6SM BR VCSH BKN006 OVC050
     FM050700 36027G35KT 6SM SHRA BR BKN010 OVC011
     FM051500 36025G35KT P6SM VCSH BKN012 OVC028
     FM051900 35019G26KT P6SM SCT012 BKN025 OVC050=



000
FTUS44 KCRP 050200 AAA
TAFVCT
TAF AMD
KVCT 050221Z 0502/0524 01019G29KT P6SM VCSH BKN008 OVC015
     FM050500 35022G32KT 6SM SHRA BKN009 OVC015
     FM051400 36023G29KT P6SM BKN012 OVC028
     FM051900 36018G25KT P6SM BKN020 OVC050=



000
FTUS44 KCRP 050200 AAA
TAFALI
TAF AMD
KALI 050218Z 0502/0524 11005KT P6SM SCT029 BKN035 OVC045
      TEMPO 0502/0504 4SM BR BKN009 OVC035
     FM050400 07014G20KT 6SM SHRA BR BKN008 OVC012
     FM050600 36022G32KT 6SM SHRA BR BKN010 OVC015
     FM051500 01022G32KT P6SM VCSH BKN012 OVC028
     FM051900 35019G26KT P6SM SCT012 OVC020=



000
FTUS44 KCRP 042300
TAFVCT
TAF
KVCT 042340Z 0500/0524 16008KT 6SM BR VCSH SCT020 BKN035 OVC045
     FM050300 01014G20KT P6SM SHRA BKN010 OVC015
     FM050500 35022G32KT 6SM SHRA BKN009 OVC015
     FM051400 36023G29KT P6SM BKN012 OVC028
     FM051900 36018G25KT P6SM BKN020 OVC050=



000
FTUS44 KCRP 042300
TAFCRP
TAF
KCRP 042340Z 0500/0524 15015G20KT P6SM VCSH SCT025 OVC250
     FM050200 11009KT 4SM BR VCSH BKN008
     FM050500 03015G20KT 6SM SHRA BR BKN006 OVC011
     FM050700 36027G35KT 6SM SHRA BR BKN010 OVC011
     FM051500 36025G35KT P6SM VCSH BKN012 OVC028
     FM051900 35019G26KT P6SM SCT012 BKN025 OVC050=



000
FTUS44 KCRP 042300
TAFALI
TAF
KALI 042340Z 0500/0524 11010KT P6SM VCSH FEW025 OVC035
     FM050200 11010KT 4SM BR VCSH BKN009 BKN030
     FM050400 07014G20KT 6SM SHRA BR BKN008 OVC012
     FM050600 36022G32KT 6SM SHRA BR BKN010 OVC015
     FM051500 01022G32KT P6SM VCSH BKN012 OVC028
     FM051900 35019G26KT P6SM SCT012 OVC020=



000
FTUS44 KCRP 042300
TAFLRD
TAF
KLRD 042340Z 0500/0524 10008KT P6SM VCSH OVC019
     FM050400 04014G20KT P6SM SHRA OVC012
     FM050600 36023G34KT P6SM SHRA OVC012
     FM051400 36020G27KT P6SM BKN012 OVC025
     FM051700 35017G24KT P6SM BKN020 OVC030=



000
FTUS44 KCRP 042100 AAA
TAFVCT
TAF AMD
KVCT 042152Z 0422/0518 17016G22KT P6SM BKN025 OVC035
     FM050000 14008KT 4SM -SHRA BR OVC007
     FM050230 36025G33KT P6SM SHRA BKN009 OVC015
     FM051400 36021G28KT P6SM BKN012 OVC028=



000
FTUS44 KCRP 041900 AAA
TAFLRD
TAF AMD
KLRD 041950Z 0420/0518 VRB06KT P6SM BKN015 OVC025
     FM042100 10008KT P6SM VCSH SCT025
     FM050400 36021G33KT P6SM SHRA OVC012
     FM051400 35017G27KT P6SM BKN012 OVC025=



000
FTUS44 KCRP 041900 AAA
TAFLRD
TAF AMD
KLRD 041950Z 0420/0518 VRB06KT P6SM BKN015 OVC025
     FM042100 10008KT P6SM VCSH SCT025
     FM050400 36021G33KT P6SM SHRA OVC012
     FM051400 35017G27KT P6SM BKN012 OVC025=



000
FTUS44 KCRP 041700 RRA
TAFVCT
TAF
KVCT 041741Z 0418/0518 17016G22KT P6SM SCT025 OVC035
     FM050000 14008KT 4SM -SHRA BR OVC007
     FM050230 36025G33KT P6SM SHRA BKN009 OVC015
     FM051400 36021G28KT P6SM BKN012 OVC028=



000
FTUS44 KCRP 041700 RRA
TAFCRP
TAF
KCRP 041741Z 0418/0518 18015G20KT P6SM -DZ BKN012 OVC025
     FM042200 15015G20KT P6SM VCSH SCT025 BKN150
     FM050100 15012KT 4SM BR VCSH BKN008
     FM050500 01027G35KT 6SM SHRA BR BKN006 OVC011
     FM051500 01025G35KT P6SM BKN012 OVC028=



000
FTUS44 KCRP 041700 RRA
TAFALI
TAF
KALI 041741Z 0418/0518 18008KT P6SM -RA SCT015 BKN028
     FM042100 16015KT P6SM -RA VCSH SCT028
     FM050100 11010KT 4SM BR VCSH BKN009 OVC150
     FM050400 01022G32KT 6SM SHRA BR BKN008 OVC012
     FM051400 01022G32KT P6SM BKN012 OVC028=



000
FTUS44 KCRP 041700 RRA
TAFLRD
TAF
KLRD 041741Z 0418/0518 VRB06KT 6SM BR OVC005
      TEMPO 0420/0421 FEW005 BKN015 OVC025
     FM042100 10008KT P6SM VCSH SCT025
     FM050400 36021G33KT P6SM SHRA OVC012
     FM051400 35017G27KT P6SM BKN012 OVC025=



000
FTUS44 KCRP 041700 RRA
TAFALI
TAF
KALI 041741Z 0418/0518 18008KT P6SM -RA SCT015 BKN028
     FM042100 16015KT P6SM -RA VCSH SCT028
     FM050100 11010KT 4SM BR VCSH BKN009 OVC150
     FM050400 01022G32KT 6SM SHRA BR BKN008 OVC012
     FM051400 01022G32KT P6SM BKN012 OVC028=



000
FTUS44 KCRP 041700 RRA
TAFCRP
TAF
KCRP 041741Z 0418/0518 18015G20KT P6SM -DZ BKN012 OVC025
     FM042200 15015G20KT P6SM VCSH SCT025 BKN150
     FM050100 15012KT 4SM BR VCSH BKN008
     FM050500 01027G35KT 6SM SHRA BR BKN006 OVC011
     FM051500 01025G35KT P6SM BKN012 OVC028=



000
FTUS44 KCRP 041700 RRA
TAFVCT
TAF
KVCT 041741Z 0418/0518 17016G22KT P6SM SCT025 OVC035
     FM050000 14008KT 4SM -SHRA BR OVC007
     FM050230 36025G33KT P6SM SHRA BKN009 OVC015
     FM051400 36021G28KT P6SM BKN012 OVC028=



000
FTUS44 KCRP 041700 RRA
TAFLRD
TAF
KLRD 041741Z 0418/0518 VRB06KT 6SM BR OVC005
      TEMPO 0420/0421 FEW005 BKN015 OVC025
     FM042100 10008KT P6SM VCSH SCT025
     FM050400 36021G33KT P6SM SHRA OVC012
     FM051400 35017G27KT P6SM BKN012 OVC025=



000
FTUS44 KCRP 041500 AAB
TAFALI
TAF AMD
KALI 041553Z 0416/0512 14006KT 6SM BR BKN015 OVC025
     FM041800 16012KT P6SM SCT015 OVC028
     FM042000 16015KT P6SM VCSH SCT028
     FM050100 11010KT 4SM -SHRA BR BKN006 OVC150
     FM050600 01022G32KT P6SM -RA BKN008 OVC012=



000
FTUS44 KCRP 041500 AAA
TAFLRD
TAF AMD
KLRD 041548Z 0416/0512 VRB03KT 2SM BR OVC004
      TEMPO 0416/0418 1/2SM -DZ FG VV002
     FM041800 VRB06KT 6SM BR VCSH FEW040 BKN200
     FM050500 01021G33KT P6SM -RA OVC018=



000
FTUS44 KCRP 041500 AAA
TAFLRD
TAF AMD
KLRD 041548Z 0416/0512 VRB03KT 2SM BR OVC004
      TEMPO 0416/0418 1/2SM -DZ FG VV002
     FM041800 VRB06KT 6SM BR VCSH FEW040 BKN200
     FM050500 01021G33KT P6SM -RA OVC018=



000
FTUS44 KCRP 041300 AAA
TAFCRP
TAF AMD
KCRP 041342Z 0414/0512 16011KT 1/2SM FG OVC002
      TEMPO 0414/0416 1/4SM -DZ FG OVC002
     FM041600 17012KT 5SM BR OVC008
     FM041700 17015KT P6SM BKN012 OVC025
     FM042200 15017KT P6SM VCSH SCT025 BKN150
     FM050100 13012KT 4SM -SHRA BR BKN008
     FM050700 36025G35KT P6SM -SHRA BKN006 OVC011=



000
FTUS44 KCRP 041300 AAA
TAFALI
TAF AMD
KALI 041303Z 0413/0512 14006KT 6SM BR FEW007 OVC025
      TEMPO 0413/0415 1/2SM FG OVC002
     FM041500 16012KT P6SM SCT014 OVC028
     FM042000 16015KT P6SM VCSH SCT028
     FM050100 11010KT 4SM -SHRA BR BKN006 OVC150
     FM050600 01022G32KT P6SM -RA BKN008 OVC012=



000
FTUS44 KCRP 041100
TAFVCT
TAF
KVCT 041137Z 0412/0512 17010KT 4SM BR BKN006 OVC025
      TEMPO 0412/0415 1SM BR SCT006 OVC025
     FM041500 17014KT P6SM SCT012 OVC025 PROB30 0421/0424 4SM -TSRA
      BR BKN015CB OVC025
     FM050000 14010KT 4SM -SHRA BR OVC007
     FM050300 36021G31KT P6SM -SHRA BKN009 OVC015=



000
FTUS44 KCRP 041100
TAFLRD
TAF
KLRD 041137Z 0412/0512 VRB03KT 2SM BR OVC004
      TEMPO 0412/0415 1/2SM -DZ FG VV002
     FM041500 VRB06KT 5SM BR SCT009 OVC018
     FM041800 VRB06KT P6SM VCSH FEW040 BKN200
     FM050500 01021G33KT P6SM -RA OVC018=



000
FTUS44 KCRP 041100
TAFALI
TAF
KALI 041137Z 0412/0512 16006KT 6SM BR FEW007 OVC025
      TEMPO 0412/0415 2SM BR OVC007
     FM041500 16012KT P6SM SCT014 OVC028
     FM042000 16015KT P6SM VCSH SCT028
     FM050100 11010KT 4SM -SHRA BR BKN006 OVC150
     FM050600 01022G32KT P6SM -RA BKN008 OVC012=



000
FTUS44 KCRP 041100
TAFCRP
TAF
KCRP 041137Z 0412/0512 16011KT 4SM BR OVC003
      TEMPO 0412/0415 1SM -DZ BR SCT003 OVC010
     FM041500 17012KT 5SM BR OVC008
     FM041700 17015KT P6SM BKN012 OVC025
     FM042200 15017KT P6SM VCSH SCT025 BKN150
     FM050100 13012KT 4SM -SHRA BR BKN008
     FM050700 36025G35KT P6SM -SHRA BKN006 OVC011=



000
FTUS44 KCRP 041100
TAFVCT
TAF
KVCT 041137Z 0412/0512 17010KT 4SM BR BKN006 OVC025
      TEMPO 0412/0415 1SM BR SCT006 OVC025
     FM041500 17014KT P6SM SCT012 OVC025 PROB30 0421/0424 4SM -TSRA
      BR BKN015CB OVC025
     FM050000 14010KT 4SM -SHRA BR OVC007
     FM050300 36021G31KT P6SM -SHRA BKN009 OVC015=



000
FTUS44 KCRP 041100
TAFLRD
TAF
KLRD 041137Z 0412/0512 VRB03KT 2SM BR OVC004
      TEMPO 0412/0415 1/2SM -DZ FG VV002
     FM041500 VRB06KT 5SM BR SCT009 OVC018
     FM041800 VRB06KT P6SM VCSH FEW040 BKN200
     FM050500 01021G33KT P6SM -RA OVC018=



000
FTUS44 KCRP 041100
TAFALI
TAF
KALI 041137Z 0412/0512 16006KT 6SM BR FEW007 OVC025
      TEMPO 0412/0415 2SM BR OVC007
     FM041500 16012KT P6SM SCT014 OVC028
     FM042000 16015KT P6SM VCSH SCT028
     FM050100 11010KT 4SM -SHRA BR BKN006 OVC150
     FM050600 01022G32KT P6SM -RA BKN008 OVC012=



000
FTUS44 KCRP 041100
TAFCRP
TAF
KCRP 041137Z 0412/0512 16011KT 4SM BR OVC003
      TEMPO 0412/0415 1SM -DZ BR SCT003 OVC010
     FM041500 17012KT 5SM BR OVC008
     FM041700 17015KT P6SM BKN012 OVC025
     FM042200 15017KT P6SM VCSH SCT025 BKN150
     FM050100 13012KT 4SM -SHRA BR BKN008
     FM050700 36025G35KT P6SM -SHRA BKN006 OVC011=



000
FTUS44 KCRP 041100 AAA
TAFCRP
TAF AMD
KCRP 041112Z 0411/0506 16011KT 4SM BR OVC003
      TEMPO 0411/0415 1SM -DZ BR SCT003 OVC010
     FM041500 17012KT 5SM BR OVC008
     FM041700 17015KT P6SM BKN012 OVC025
     FM042200 15017KT P6SM SCT025
     FM050100 13012KT P6SM BKN008
     FM050330 36022G32KT 5SM -SHRA BR OVC006=



000
FTUS44 KCRP 041100 AAA
TAFCRP
TAF AMD
KCRP 041112Z 0411/0506 16011KT 4SM BR OVC003
      TEMPO 0411/0415 1SM -DZ BR SCT003 OVC010
     FM041500 17012KT 5SM BR OVC008
     FM041700 17015KT P6SM BKN012 OVC025
     FM042200 15017KT P6SM SCT025
     FM050100 13012KT P6SM BKN008
     FM050330 36022G32KT 5SM -SHRA BR OVC006=



000
FTUS44 KCRP 041100 AAA
TAFVCT
TAF AMD
KVCT 041109Z 0411/0506 16010KT 5SM BR BKN006 OVC025
      TEMPO 0411/0415 1SM BR SCT006 OVC025
     FM041500 17014KT P6SM SCT012 OVC025
     FM050000 14010KT 4SM BR OVC007
     FM050200 35018G28KT 4SM -SHRA OVC005=



000
FTUS44 KCRP 041100 AAA
TAFVCT
TAF AMD
KVCT 041109Z 0411/0506 16010KT 5SM BR BKN006 OVC025
      TEMPO 0411/0415 1SM BR SCT006 OVC025
     FM041500 17014KT P6SM SCT012 OVC025
     FM050000 14010KT 4SM BR OVC007
     FM050200 35018G28KT 4SM -SHRA OVC005=



000
FTUS44 KCRP 041100 AAB
TAFALI
TAF AMD
KALI 041106Z 0411/0506 15006KT 6SM BR FEW007 OVC025
      TEMPO 0411/0415 1SM BR OVC007
     FM041500 16012KT P6SM SCT014 OVC028
     FM042000 16015KT P6SM SCT028 SCT150
     FM050100 11010KT 4SM BR BKN006 OVC150
     FM050300 01020G30KT 5SM -SHRA OVC008=



000
FTUS44 KCRP 041100 AAB
TAFALI
TAF AMD
KALI 041106Z 0411/0506 15006KT 6SM BR FEW007 OVC025
      TEMPO 0411/0415 1SM BR OVC007
     FM041500 16012KT P6SM SCT014 OVC028
     FM042000 16015KT P6SM SCT028 SCT150
     FM050100 11010KT 4SM BR BKN006 OVC150
     FM050300 01020G30KT 5SM -SHRA OVC008=



000
FTUS44 KCRP 040900 AAA
TAFALI
TAF AMD
KALI 040901Z 0409/0506 15011KT 5SM BR OVC010
      TEMPO 0409/0413 1SM BR OVC005
     FM041500 16012KT P6SM OVC011
     FM041800 18014KT P6SM BKN014 OVC028
     FM042000 16015KT P6SM SCT028 SCT150
     FM050100 11010KT 4SM BR BKN006 OVC150
     FM050300 01020G30KT 5SM -SHRA OVC008=



000
FTUS44 KCRP 040500
TAFLRD
TAF
KLRD 040520Z 0406/0506 06008KT 2SM BR OVC004
      TEMPO 0406/0409 1/2SM -DZ FG VV001
     FM040900 VRB04KT 1SM BR OVC003
     FM041500 16005KT 5SM BR BKN009 OVC018
     FM041800 18006KT P6SM SCT025 SCT150
     FM050200 02018G28KT 5SM -SHRA OVC008=



000
FTUS44 KCRP 040500
TAFCRP
TAF
KCRP 040520Z 0406/0506 15014G21KT 4SM BR OVC002
      TEMPO 0406/0408 1SM -DZ BR
     FM040800 15012KT 1/2SM FG VV002
     FM041600 17012KT 3SM BR OVC008
     FM041900 17015KT P6SM BKN012 OVC025
     FM042200 15017KT P6SM SCT025
     FM050100 13012KT P6SM BKN008
     FM050330 36022G32KT 5SM -SHRA BR OVC006=



000
FTUS44 KCRP 040500
TAFALI
TAF
KALI 040520Z 0406/0506 14011KT 5SM BR OVC005
      TEMPO 0406/0408 1SM BR OVC003
     FM040800 15008KT 1/2SM FG VV002
     FM041600 16012KT 4SM BR OVC009
     FM041800 18014KT P6SM BKN014 OVC028
     FM042000 16015KT P6SM SCT028 SCT150
     FM050100 11010KT 4SM BR BKN006 OVC150
     FM050300 01020G30KT 5SM -SHRA OVC008=



000
FTUS44 KCRP 040500
TAFVCT
TAF
KVCT 040520Z 0406/0506 15010KT 5SM BR OVC006
      TEMPO 0406/0408 1/2SM -DZ FG OVC002
     FM040800 16008KT 1/2SM FG OVC002
     FM041600 17012KT 3SM BR BKN005 OVC012
     FM041800 17014KT P6SM BKN012 OVC025
     FM050000 14010KT 4SM BR OVC007
     FM050200 35018G28KT 4SM -SHRA OVC005=



000
FTUS44 KCRP 040400 AAC
TAFLRD
TAF AMD
KLRD 040450Z 0405/0424 05006KT 3SM BR OVC004
     FM041000 14004KT 2SM BR OVC004
     FM041500 16006KT 5SM BR BKN009 OVC018
     FM041800 18008KT P6SM SCT025 SCT150=



000
FTUS44 KCRP 040400 AAB
TAFVCT
TAF AMD
KVCT 040425Z 0404/0424 15012KT 6SM BR OVC005
     FM040500 16010KT 4SM BR OVC004
     FM040700 16008KT 1/2SM FG OVC002
     FM041600 17012KT 3SM BR BKN005 OVC012
     FM041800 17014KT P6SM BKN012 OVC025=



000
FTUS44 KCRP 040400 AAB
TAFLRD
TAF AMD
KLRD 040424Z 0404/0424 05006KT P6SM SCT015
      TEMPO 0404/0407 5SM BR BKN015
     FM040700 12005KT 5SM BR OVC008
     FM041000 14004KT 2SM BR OVC004
     FM041500 16006KT 5SM BR BKN009 OVC018
     FM041800 18008KT P6SM SCT025 SCT150=



000
FTUS44 KCRP 040400 AAC
TAFALI
TAF AMD
KALI 040422Z 0404/0424 15011KT 5SM BR OVC004
      TEMPO 0404/0406 2SM BR OVC003
     FM040600 15008KT 1/2SM FG VV002
     FM041600 16012KT 4SM BR OVC009
     FM041800 18014KT P6SM BKN018
     FM042000 16015KT P6SM SCT025 SCT150=



000
FTUS44 KCRP 040300 AAB
TAFALI
TAF AMD
KALI 040320Z 0403/0424 15011KT 2SM BR OVC003
      TEMPO 0403/0405 3/4SM BR OVC002
     FM040500 15008KT 1/2SM FG VV002
     FM041600 16012KT 4SM BR OVC009
     FM041800 18014KT P6SM BKN018
     FM042000 16015KT P6SM SCT025 SCT150=



000
FTUS44 KCRP 040300 AAB
TAFALI
TAF AMD
KALI 040320Z 0403/0424 15011KT 2SM BR OVC003
      TEMPO 0403/0405 3/4SM BR OVC002
     FM040500 15008KT 1/2SM FG VV002
     FM041600 16012KT 4SM BR OVC009
     FM041800 18014KT P6SM BKN018
     FM042000 16015KT P6SM SCT025 SCT150=



000
FTUS44 KCRP 040200 AAA
TAFVCT
TAF AMD
KVCT 040254Z 0403/0424 15012KT P6SM SCT008 OVC015
      TEMPO 0403/0405 4SM BR BKN008
     FM040500 16010KT 4SM BR BKN006 OVC015
     FM040700 16008KT 1/2SM FG OVC002
     FM041600 17012KT 3SM BR BKN005 OVC012
     FM041800 17014KT P6SM BKN012 OVC025=



000
FTUS44 KCRP 040200 AAA
TAFCRP
TAF AMD
KCRP 040252Z 0403/0424 15017G25KT 3SM BR OVC002
      TEMPO 0403/0405 1SM -DZ BR
     FM040500 16012KT 1/2SM FG VV002
     FM041600 17012KT 3SM BR OVC008
     FM041900 17015KT P6SM BKN012 OVC025
     FM042200 16017KT P6SM SCT025=



000
FTUS44 KCRP 040200 AAC
TAFCRP
TAF AMD
KCRP 040211Z 0402/0424 15017G25KT 2SM BR OVC002
      TEMPO 0402/0404 1/2SM -DZ FG
     FM040400 16012KT 1/2SM FG VV002
     FM041600 17012KT 3SM BR OVC008
     FM041900 17015KT P6SM BKN012 OVC025
     FM042200 16017KT P6SM SCT025=



000
FTUS44 KCRP 040100 AAA
TAFLRD
TAF AMD
KLRD 040153Z 0402/0424 14006KT P6SM SCT015 BKN020
     FM040700 15010KT P6SM OVC009
     FM041000 14004KT 2SM BR OVC004
     FM041500 16006KT 5SM BR BKN009 OVC018
     FM041800 18008KT P6SM SCT025 SCT150=



000
FTUS44 KCRP 040100 AAA
TAFLRD
TAF AMD
KLRD 040153Z 0402/0424 14006KT P6SM SCT015 BKN020
     FM040700 15010KT P6SM OVC009
     FM041000 14004KT 2SM BR OVC004
     FM041500 16006KT 5SM BR BKN009 OVC018
     FM041800 18008KT P6SM SCT025 SCT150=



000
FTUS44 KCRP 040100 AAA
TAFALI
TAF AMD
KALI 040148Z 0402/0424 12008KT 1/2SM FG OVC002
     FM041600 16012KT 4SM BR OVC009
     FM041800 18014KT P6SM BKN018
     FM042000 16015KT P6SM SCT025 SCT150=



000
FTUS44 KCRP 040100 AAB
TAFCRP
TAF AMD
KCRP 040147Z 0402/0424 15017G25KT 1SM BR OVC002
      TEMPO 0402/0404 1/2SM FG
     FM040500 16012KT 1/2SM FG OVC002
     FM041600 17012KT 3SM BR OVC008
     FM041900 17015KT P6SM BKN012 OVC025
     FM042200 16017KT P6SM SCT025=



000
FTUS44 KCRP 040100 AAA
TAFCRP
TAF AMD
KCRP 040106Z 0401/0424 16012KT 6SM BR OVC005
      TEMPO 0401/0403 4SM BR SCT005 OVC009
     FM040300 15010KT 3SM BR OVC004
     FM040500 16008KT 1/2SM FG OVC002
     FM041600 17012KT 3SM BR OVC008
     FM041900 17015KT P6SM BKN012 OVC025
     FM042200 16017KT P6SM SCT025=



000
FTUS44 KCRP 032300
TAFVCT
TAF
KVCT 032332Z 0400/0424 17016G26KT P6SM SCT016 BKN026
      TEMPO 0400/0402 BKN016
     FM040200 16008KT 4SM BR BKN006 OVC015
     FM040500 16008KT 1/2SM FG OVC002
     FM041600 17012KT 3SM BR BKN005 OVC012
     FM041800 17014KT P6SM BKN012 OVC025=



000
FTUS44 KCRP 032300
TAFLRD
TAF
KLRD 032332Z 0400/0424 14010KT P6SM SCT016
     FM040700 15010KT P6SM OVC009
     FM041000 14004KT 2SM BR OVC004
     FM041500 16006KT 5SM BR BKN009 OVC018
     FM041800 18008KT P6SM SCT025 SCT150=



000
FTUS44 KCRP 032300
TAFCRP
TAF
KCRP 032332Z 0400/0424 VRB03KT 2SM BR OVC005
      TEMPO 0401/0403 16008KT 4SM BR SCT005 OVC009
     FM040300 15010KT 3SM BR OVC004
     FM040500 16008KT 1/2SM FG OVC002
     FM041600 17012KT 3SM BR OVC008
     FM041900 17015KT P6SM BKN012 OVC025
     FM042200 16017KT P6SM SCT025=



000
FTUS44 KCRP 032300
TAFALI
TAF
KALI 032332Z 0400/0424 15006KT P6SM OVC007
      TEMPO 0400/0403 5SM BR SCT007 BKN012
     FM040300 16008KT 3SM BR BKN005
     FM040600 16008KT 1/2SM FG OVC002
     FM041600 16012KT 4SM BR OVC009
     FM041800 18014KT P6SM BKN018
     FM042000 16015KT P6SM SCT025 SCT150=



000
FTUS44 KCRP 032100 AAC
TAFALI
TAF AMD
KALI 032133Z 0322/0418 VRB03KT 5SM BR OVC005
     FM040100 16004KT 2SM BR OVC003
     FM040500 16008KT 1/2SM FG OVC002=



000
FTUS44 KCRP 032100 AAA
TAFCRP
TAF AMD
KCRP 032114Z 0321/0418 VRB04KT 3SM BR BKN003 OVC007
     FM032300 16014KT 5SM BR OVC015
     FM040100 16010KT 3SM BR OVC002
     FM040400 16008KT 1/2SM FG OVC002=



000
FTUS44 KCRP 032100 AAA
TAFLRD
TAF AMD
KLRD 032112Z 0321/0418 16012KT P6SM BKN015
      TEMPO 0323/0401 SCT015 BKN025
     FM040800 14010KT P6SM OVC009
     FM041100 14004KT 2SM BR OVC005=



000
FTUS44 KCRP 032100 AAA
TAFLRD
TAF AMD
KLRD 032112Z 0321/0418 16012KT P6SM BKN015
      TEMPO 0323/0401 SCT015 BKN025
     FM040800 14010KT P6SM OVC009
     FM041100 14004KT 2SM BR OVC005=



000
FTUS44 KCRP 032000 AAB
TAFALI
TAF AMD
KALI 032025Z 0320/0418 16010KT 3SM BR OVC003
      TEMPO 0323/0401 5SM BR OVC008
     FM040500 16008KT 1/2SM FG OVC002=



000
FTUS44 KCRP 031900 AAA
TAFALI
TAF AMD
KALI 031903Z 0319/0418 VRB04KT 2SM BR OVC003
     FM032100 16012G18KT 6SM BR OVC010
     FM040200 16010KT 3SM BR OVC003
     FM040500 16008KT 1/2SM FG OVC002=



000
FTUS44 KCRP 031800 AAA
TAFVCT
TAF AMD
KVCT 031853Z 0319/0418 17016G26KT P6SM SCT015 BKN025
     FM040100 16008KT 3SM BR OVC005
     FM040300 16008KT 1/2SM FG OVC002=



000
FTUS44 KCRP 031700
TAFLRD
TAF
KLRD 031729Z 0318/0418 VRB03KT P6SM OVC003
     FM031900 16008KT P6SM BKN015
     FM032100 16012KT P6SM SCT025
     FM040800 14010KT P6SM OVC009
     FM041100 14004KT 2SM BR OVC005=



000
FTUS44 KCRP 031700
TAFVCT
TAF
KVCT 031729Z 0318/0418 18009KT 4SM BR OVC005
     FM032000 17014G20KT 6SM BR OVC015
     FM040100 16008KT 3SM BR OVC005
     FM040300 16008KT 1/2SM FG OVC002=



000
FTUS44 KCRP 031700
TAFCRP
TAF
KCRP 031729Z 0318/0418 18010KT 3SM BR BKN003 OVC007
     FM032000 16014G20KT 6SM BR OVC015
     FM040100 16010KT 3SM BR OVC002
     FM040400 16008KT 1/2SM FG OVC002=



000
FTUS44 KCRP 031700
TAFALI
TAF
KALI 031729Z 0318/0418 VRB04KT 3SM BR OVC003
     FM031900 18009KT 6SM BR OVC008
     FM032100 16012G18KT P6SM OVC015
     FM040200 16010KT 3SM BR OVC003
     FM040500 16008KT 1/2SM FG OVC002=



000
FTUS44 KCRP 031700
TAFALI
TAF
KALI 031729Z 0318/0418 VRB04KT 3SM BR OVC003
     FM031900 18009KT 6SM BR OVC008
     FM032100 16012G18KT P6SM OVC015
     FM040200 16010KT 3SM BR OVC003
     FM040500 16008KT 1/2SM FG OVC002=



000
FTUS44 KCRP 031700
TAFLRD
TAF
KLRD 031729Z 0318/0418 VRB03KT P6SM OVC003
     FM031900 16008KT P6SM BKN015
     FM032100 16012KT P6SM SCT025
     FM040800 14010KT P6SM OVC009
     FM041100 14004KT 2SM BR OVC005=



000
FTUS44 KCRP 031700
TAFCRP
TAF
KCRP 031729Z 0318/0418 18010KT 3SM BR BKN003 OVC007
     FM032000 16014G20KT 6SM BR OVC015
     FM040100 16010KT 3SM BR OVC002
     FM040400 16008KT 1/2SM FG OVC002=



000
FTUS44 KCRP 031700
TAFVCT
TAF
KVCT 031729Z 0318/0418 18009KT 4SM BR OVC005
     FM032000 17014G20KT 6SM BR OVC015
     FM040100 16008KT 3SM BR OVC005
     FM040300 16008KT 1/2SM FG OVC002=



000
FTUS44 KCRP 031600 AAB
TAFVCT
TAF AMD
KVCT 031637Z 0317/0412 04005KT 1/4SM -DZ FG VV002
      TEMPO 0318/0319 1/2SM FG OVC002
     FM031900 18006KT 3SM BR OVC003
     FM032000 17014G20KT P6SM OVC008
     FM040100 15008KT 3SM BR OVC005=



000
FTUS44 KCRP 031600 AAA
TAFALI
TAF AMD
KALI 031636Z 0317/0412 35005KT 1/2SM -DZ FG VV002
      TEMPO 0317/0318 1SM BR OVC002
     FM031800 VRB04KT 3SM BR OVC003
     FM031900 18008KT P6SM OVC008
     FM032100 16012G18KT P6SM OVC015
     FM040200 13010KT 3SM BR OVC003=



000
FTUS44 KCRP 031600 AAA
TAFCRP
TAF AMD
KCRP 031607Z 0316/0412 VRB05KT 1/4SM -DZ FG VV002
      TEMPO 0318/0319 1/2SM FG OVC002
     FM031900 16010KT 3SM BR OVC007
     FM032000 15014G20KT 6SM BR OVC015
     FM040100 16010KT 3SM BR OVC002=



000
FTUS44 KCRP 031400 AAA
TAFVCT
TAF AMD
KVCT 031401Z 0314/0412 04005KT 1/4SM -DZ FG VV002
      TEMPO 0314/0317 1/2SM FG
     FM031700 18006KT 3SM BR OVC005
     FM032000 17014G20KT P6SM OVC008
     FM040100 15008KT 3SM BR OVC005=



000
FTUS44 KCRP 031400 AAA
TAFVCT
TAF AMD
KVCT 031401Z 0314/0412 04005KT 1/4SM -DZ FG VV002
      TEMPO 0314/0317 1/2SM FG
     FM031700 18006KT 3SM BR OVC005
     FM032000 17014G20KT P6SM OVC008
     FM040100 15008KT 3SM BR OVC005=



000
FTUS44 KCRP 031300 AAA
TAFCRP
TAF AMD
KCRP 031307Z 0313/0412 VRB05KT 1/4SM -DZ FG VV002
      TEMPO 0313/0316 1/2SM -DZ FG OVC002
     FM031600 16010KT 3SM -DZ BR OVC007
     FM032000 15014G20KT 6SM BR OVC015
     FM040100 16010KT 3SM BR OVC002=



000
FTUS44 KCRP 031300 AAA
TAFCRP
TAF AMD
KCRP 031307Z 0313/0412 VRB05KT 1/4SM -DZ FG VV002
      TEMPO 0313/0316 1/2SM -DZ FG OVC002
     FM031600 16010KT 3SM -DZ BR OVC007
     FM032000 15014G20KT 6SM BR OVC015
     FM040100 16010KT 3SM BR OVC002=



000
FTUS44 KCRP 031100
TAFVCT
TAF
KVCT 031125Z 0312/0412 04005KT 1/2SM -DZ FG VV002
      TEMPO 0312/0314 1/4SM FG
     FM031700 18006KT 3SM BR OVC005
     FM032000 17014G20KT P6SM OVC008
     FM040100 15008KT 3SM BR OVC005=



000
FTUS44 KCRP 031100
TAFALI
TAF
KALI 031125Z 0312/0412 35005KT 1/4SM -DZ FG VV002
     FM031630 VRB04KT 3SM BR OVC005
     FM031900 18008KT P6SM OVC008
     FM032100 16012G18KT P6SM OVC015
     FM040200 13010KT 3SM BR OVC003=



000
FTUS44 KCRP 031100
TAFCRP
TAF
KCRP 031125Z 0312/0412 03005KT 1/2SM -DZ FG VV002
      TEMPO 0312/0313 1/4SM FG
     FM031700 16010KT 3SM -DZ BR OVC007
     FM032000 15014G20KT 6SM BR OVC015
     FM040100 16010KT 3SM BR OVC002=



000
FTUS44 KCRP 031100
TAFLRD
TAF
KLRD 031125Z 0312/0412 VRB03KT 4SM -RA BR OVC003
     FM031600 14006KT 6SM BR OVC006
     FM031900 16008KT P6SM BKN015
     FM032100 16012KT P6SM SCT025
     FM040700 14010KT P6SM OVC009=



000
FTUS44 KCRP 030500
TAFLRD
TAF
KLRD 030528Z 0306/0406 VRB03KT 3SM -RA BR OVC003
     FM030900 12005KT 1SM -RA BR OVC002
     FM031600 14006KT 4SM BR OVC007
     FM031900 16008KT P6SM BKN015
     FM032100 16012KT P6SM SCT025
     FM040300 14010KT P6SM BKN012=



000
FTUS44 KCRP 030500
TAFCRP
TAF
KCRP 030528Z 0306/0406 03005KT 1/4SM -DZ FG VV002
     FM031300 12005KT 1/4SM -DZ FG VV001
     FM031700 16010KT 3SM -DZ BR OVC007
     FM032000 15016KT 6SM BR BKN015
     FM040200 15012KT 3SM BR OVC008=



000
FTUS44 KCRP 030500
TAFALI
TAF
KALI 030528Z 0306/0406 35005KT 1/4SM -DZ FG VV002
     FM031630 VRB04KT 3SM BR OVC005
     FM031900 17008KT P6SM OVC008
     FM032100 16012KT P6SM BKN015
     FM040000 13014KT P6SM BKN025
     FM040300 13010KT 4SM BR OVC012=



000
FTUS44 KCRP 030500
TAFLRD
TAF
KLRD 030528Z 0306/0406 VRB03KT 3SM -RA BR OVC003
     FM030900 12005KT 1SM -RA BR OVC002
     FM031600 14006KT 4SM BR OVC007
     FM031900 16008KT P6SM BKN015
     FM032100 16012KT P6SM SCT025
     FM040300 14010KT P6SM BKN012=



000
FTUS44 KCRP 030500
TAFALI
TAF
KALI 030528Z 0306/0406 35005KT 1/4SM -DZ FG VV002
     FM031630 VRB04KT 3SM BR OVC005
     FM031900 17008KT P6SM OVC008
     FM032100 16012KT P6SM BKN015
     FM040000 13014KT P6SM BKN025
     FM040300 13010KT 4SM BR OVC012=



000
FTUS44 KCRP 030500
TAFVCT
TAF
KVCT 030528Z 0306/0406 04005KT 1/4SM -DZ FG VV002
     FM031700 14006KT 3SM BR OVC005
     FM032000 17014KT P6SM OVC009
     FM032300 16012KT P6SM BKN015
     FM040300 15008KT 3SM BR OVC005=



000
FTUS44 KCRP 030500
TAFCRP
TAF
KCRP 030528Z 0306/0406 03005KT 1/4SM -DZ FG VV002
     FM031300 12005KT 1/4SM -DZ FG VV001
     FM031700 16010KT 3SM -DZ BR OVC007
     FM032000 15016KT 6SM BR BKN015
     FM040200 15012KT 3SM BR OVC008=



000
FTUS44 KCRP 030500
TAFVCT
TAF
KVCT 030528Z 0306/0406 04005KT 1/4SM -DZ FG VV002
     FM031700 14006KT 3SM BR OVC005
     FM032000 17014KT P6SM OVC009
     FM032300 16012KT P6SM BKN015
     FM040300 15008KT 3SM BR OVC005=



000
FTUS44 KCRP 030300 AAB
TAFALI
TAF AMD
KALI 030327Z 0303/0324 35005KT 1/4SM -DZ FG VV002
     FM031630 VRB04KT 3SM BR OVC005
     FM031900 17008KT P6SM OVC008
     FM032200 16012KT P6SM BKN015=



000
FTUS44 KCRP 030300 AAB
TAFCRP
TAF AMD
KCRP 030326Z 0303/0324 03005KT 1/4SM -DZ FG VV002
     FM031700 16008KT 3SM -DZ BR OVC008
     FM032000 16016G21KT P6SM BKN015=



000
FTUS44 KCRP 030300 AAB
TAFVCT
TAF AMD
KVCT 030307Z 0303/0324 04005KT 1/2SM -DZ FG OVC002
     FM031630 14006KT 3SM BR OVC005
     FM032000 17012KT P6SM OVC009
     FM032300 17015KT P6SM BKN015=



000
FTUS44 KCRP 030300 AAB
TAFVCT
TAF AMD
KVCT 030307Z 0303/0324 04005KT 1/2SM -DZ FG OVC002
     FM031630 14006KT 3SM BR OVC005
     FM032000 17012KT P6SM OVC009
     FM032300 17015KT P6SM BKN015=



000
FTUS44 KCRP 030200 AAA
TAFVCT
TAF AMD
KVCT 030244Z 0303/0324 04005KT 1SM BR OVC003
     FM030400 05005KT 1/2SM -DZ FG OVC002
     FM031630 14006KT 3SM BR OVC005
     FM032000 17012KT P6SM OVC009
     FM032300 17015KT P6SM BKN015=



000
FTUS44 KCRP 030200 AAA
TAFVCT
TAF AMD
KVCT 030244Z 0303/0324 04005KT 1SM BR OVC003
     FM030400 05005KT 1/2SM -DZ FG OVC002
     FM031630 14006KT 3SM BR OVC005
     FM032000 17012KT P6SM OVC009
     FM032300 17015KT P6SM BKN015=



000
FTUS44 KCRP 030200 AAA
TAFCRP
TAF AMD
KCRP 030241Z 0303/0324 02005KT 1SM -DZ OVC002
      TEMPO 0303/0304 1/2SM -DZ FG VV002
     FM030400 04006KT 1/4SM -DZ FG VV002
     FM031700 16008KT 3SM -DZ BR OVC008
     FM032000 16016G21KT P6SM BKN015=



000
FTUS44 KCRP 030200 AAA
TAFCRP
TAF AMD
KCRP 030241Z 0303/0324 02005KT 1SM -DZ OVC002
      TEMPO 0303/0304 1/2SM -DZ FG VV002
     FM030400 04006KT 1/4SM -DZ FG VV002
     FM031700 16008KT 3SM -DZ BR OVC008
     FM032000 16016G21KT P6SM BKN015=



000
FTUS44 KCRP 030100 AAA
TAFLRD
TAF AMD
KLRD 030148Z 0302/0324 04005KT 6SM -RA BR OVC008
      TEMPO 0302/0304 4SM -RA BR OVC005
     FM030400 07004KT 2SM -RA BR OVC003
     FM030900 12005KT 1SM -RA BR OVC002
     FM031600 14006KT 4SM BR OVC007
     FM031900 16008KT P6SM BKN015
     FM032100 16012KT P6SM SCT025=



000
FTUS44 KCRP 030000 AAA
TAFALI
TAF AMD
KALI 030024Z 0300/0324 03006KT 1SM -DZ BR OVC003
     FM030500 35005KT 1/2SM -DZ FG OVC002
     FM031630 VRB04KT 3SM BR OVC005
     FM031900 17008KT P6SM OVC008
     FM032200 16012KT P6SM BKN015=



000
FTUS44 KCRP 022300
TAFLRD
TAF
KLRD 022323Z 0300/0324 04005KT 4SM -RA BR OVC005
     FM030300 07004KT 2SM -RA BR OVC003
     FM030900 12005KT 1SM -RA BR OVC002
     FM031600 14006KT 4SM BR OVC007
     FM031900 16008KT P6SM BKN015
     FM032100 16012KT P6SM SCT025=



000
FTUS44 KCRP 022300
TAFCRP
TAF
KCRP 022323Z 0300/0324 02007KT 2SM -DZ OVC004
      TEMPO 0300/0304 1SM -DZ BR OVC003
     FM030400 04006KT 1/2SM -DZ FG OVC002
     FM031700 16008KT 3SM -DZ BR OVC008
     FM032000 16016G21KT P6SM BKN015=



000
FTUS44 KCRP 022300
TAFALI
TAF
KALI 022323Z 0300/0324 03006KT 3SM BR OVC004
     FM030200 02005KT 2SM -DZ BR OVC003
     FM030500 35005KT 1/2SM -DZ FG OVC002
     FM031630 VRB04KT 3SM BR OVC005
     FM031900 17008KT P6SM OVC008
     FM032200 16012KT P6SM BKN015=



000
FTUS44 KCRP 022300
TAFVCT
TAF
KVCT 022323Z 0300/0324 03007KT P6SM OVC012
      TEMPO 0301/0303 5SM BR OVC008
     FM030300 05005KT 3SM BR OVC004
     FM030600 07005KT 1/2SM -RA FG OVC003
     FM031630 14006KT 3SM BR OVC005
     FM032000 17012KT P6SM OVC009
     FM032300 17015KT P6SM BKN015=



000
FTUS44 KCRP 022100 AAB
TAFLRD
TAF AMD
KLRD 022151Z 0222/0318 04004KT 4SM BR OVC005
     FM030500 12003KT 2SM -RA BR OVC004
     FM031100 12005KT 1SM -RA BR OVC003
     FM031600 14006KT 4SM BR OVC007=



000
FTUS44 KCRP 022100 AAB
TAFLRD
TAF AMD
KLRD 022151Z 0222/0318 04004KT 4SM BR OVC005
     FM030500 12003KT 2SM -RA BR OVC004
     FM031100 12005KT 1SM -RA BR OVC003
     FM031600 14006KT 4SM BR OVC007=



000
FTUS44 KCRP 022100 AAC
TAFALI
TAF AMD
KALI 022104Z 0221/0318 03007KT 5SM BR OVC004
     FM030100 02005KT 2SM -DZ BR OVC003
     FM030500 35005KT 1/2SM -RA FG OVC002
     FM031630 VRB05KT 3SM BR OVC005=



000
FTUS44 KCRP 022100 AAC
TAFALI
TAF AMD
KALI 022104Z 0221/0318 03007KT 5SM BR OVC004
     FM030100 02005KT 2SM -DZ BR OVC003
     FM030500 35005KT 1/2SM -RA FG OVC002
     FM031630 VRB05KT 3SM BR OVC005=



000
FTUS44 KCRP 022000 AAB
TAFALI
TAF AMD
KALI 022033Z 0221/0318 03007KT 5SM BR OVC004
      TEMPO 0221/0223 3SM BR OVC003
     FM030100 02005KT 2SM -DZ BR OVC003
     FM030500 35005KT 1/2SM -RA FG OVC002
     FM031630 VRB05KT 3SM BR OVC005=



000
FTUS44 KCRP 022000 CCA
TAFVCT
TAF COR
KVCT 022008Z 0220/0318 36008KT 6SM BR OVC008
      TEMPO 0220/0224 OVC012
     FM030100 05005KT 3SM BR OVC004
     FM030500 07005KT 1/2SM -RA FG OVC003
     FM031630 13006KT 3SM BR OVC006=



000
FTUS44 KCRP 021900 AAA
TAFVCT
TAF AMD
KVCT 021946Z 0220/0318 36008KT 6SM BR OVC008
      TEMPO 0220/0224 OVC010
     FM030100 05005KT 3SM BR OVC004
     FM030500 07005KT 1/2SM -RA FG OVC003
     FM031630 13006KT 3SM BR OVC006=



000
FTUS44 KCRP 021900 AAA
TAFALI
TAF AMD
KALI 021901Z 0219/0318 03007KT 3SM BR OVC004
      TEMPO 0219/0221 3SM BR OVC003
     FM030100 02005KT 2SM -DZ BR OVC003
     FM030500 35005KT 1/2SM -RA FG OVC002
     FM031630 VRB05KT 3SM BR OVC005=



000
FTUS44 KCRP 021800 AAA
TAFLRD
TAF AMD
KLRD 021854Z 0219/0318 35006KT P6SM OVC008
      TEMPO 0219/0221 4SM -RA BR OVC005
     FM030200 07004KT 4SM BR OVC006
     FM030500 12003KT 2SM -RA BR OVC004
     FM031100 12005KT 1SM -RA BR OVC003
     FM031600 14006KT 4SM BR OVC007=



000
FTUS44 KCRP 021800 AAA
TAFLRD
TAF AMD
KLRD 021854Z 0219/0318 35006KT P6SM OVC008
      TEMPO 0219/0221 4SM -RA BR OVC005
     FM030200 07004KT 4SM BR OVC006
     FM030500 12003KT 2SM -RA BR OVC004
     FM031100 12005KT 1SM -RA BR OVC003
     FM031600 14006KT 4SM BR OVC007=



000
FTUS44 KCRP 021700
TAFALI
TAF
KALI 021735Z 0218/0318 03007KT 3SM BR OVC004
     FM030100 02005KT 2SM -DZ BR OVC003
     FM030500 35005KT 1/2SM -RA FG OVC002
     FM031630 VRB05KT 3SM BR OVC005=



000
FTUS44 KCRP 021700
TAFCRP
TAF
KCRP 021735Z 0218/0318 02010KT 2SM -DZ OVC004
      TEMPO 0218/0222 3/4SM -DZ BR OVC002
     FM030100 03008KT 2SM -DZ BR OVC004
     FM030500 05007KT 1/2SM -RA FG OVC002
     FM031630 12005KT 3SM -DZ BR OVC008=



000
FTUS44 KCRP 021700
TAFLRD
TAF
KLRD 021735Z 0218/0318 03006KT P6SM OVC008
     FM021900 01006KT P6SM OVC012
     FM030200 07004KT 4SM BR OVC006
     FM030500 12003KT 2SM -RA BR OVC004
     FM031100 12005KT 1SM -RA BR OVC003
     FM031600 14006KT 4SM BR OVC007=



000
FTUS44 KCRP 021700
TAFVCT
TAF
KVCT 021735Z 0218/0318 36008KT 6SM BR OVC007
     FM030100 05005KT 3SM BR OVC004
     FM030500 07005KT 1/2SM -RA FG OVC003
     FM031630 13006KT 3SM BR OVC006=



000
FTUS44 KCRP 021700
TAFALI
TAF
KALI 021735Z 0218/0318 03007KT 3SM BR OVC004
     FM030100 02005KT 2SM -DZ BR OVC003
     FM030500 35005KT 1/2SM -RA FG OVC002
     FM031630 VRB05KT 3SM BR OVC005=



000
FTUS44 KCRP 021700
TAFCRP
TAF
KCRP 021735Z 0218/0318 02010KT 2SM -DZ OVC004
      TEMPO 0218/0222 3/4SM -DZ BR OVC002
     FM030100 03008KT 2SM -DZ BR OVC004
     FM030500 05007KT 1/2SM -RA FG OVC002
     FM031630 12005KT 3SM -DZ BR OVC008=



000
FTUS44 KCRP 021700
TAFLRD
TAF
KLRD 021735Z 0218/0318 03006KT P6SM OVC008
     FM021900 01006KT P6SM OVC012
     FM030200 07004KT 4SM BR OVC006
     FM030500 12003KT 2SM -RA BR OVC004
     FM031100 12005KT 1SM -RA BR OVC003
     FM031600 14006KT 4SM BR OVC007=



000
FTUS44 KCRP 021700
TAFVCT
TAF
KVCT 021735Z 0218/0318 36008KT 6SM BR OVC007
     FM030100 05005KT 3SM BR OVC004
     FM030500 07005KT 1/2SM -RA FG OVC003
     FM031630 13006KT 3SM BR OVC006=



000
FTUS44 KCRP 021600 AAB
TAFVCT
TAF AMD
KVCT 021635Z 0217/0312 01008KT 4SM -DZ BR OVC005
     FM030200 05005KT 2SM BR OVC003=



000
FTUS44 KCRP 021600 AAB
TAFVCT
TAF AMD
KVCT 021635Z 0217/0312 01008KT 4SM -DZ BR OVC005
     FM030200 05005KT 2SM BR OVC003=



000
FTUS44 KCRP 021500 AAB
TAFALI
TAF AMD
KALI 021514Z 0215/0312 36008KT 3SM BR OVC003
      TEMPO 0215/0216 1 1/2SM BR OVC002
     FM021800 02008KT 3SM BR OVC004
     FM030100 06005KT 2SM BR OVC003=



000
FTUS44 KCRP 021300 AAA
TAFVCT
TAF AMD
KVCT 021356Z 0214/0312 01008KT 3SM -DZ BR OVC003
      TEMPO 0214/0217 1 1/2SM BR OVC002
     FM030200 05005KT 2SM BR OVC003=



000
FTUS44 KCRP 021300 AAA
TAFVCT
TAF AMD
KVCT 021356Z 0214/0312 01008KT 3SM -DZ BR OVC003
      TEMPO 0214/0217 1 1/2SM BR OVC002
     FM030200 05005KT 2SM BR OVC003=



000
FTUS44 KCRP 021300 AAA
TAFLRD
TAF AMD
KLRD 021329Z 0213/0312 02008KT 3SM BR OVC003
      TEMPO 0213/0215 2SM -RA BR OVC003
     FM021800 04006KT P6SM OVC006
     FM030400 VRB04KT 4SM BR OVC004=



000
FTUS44 KCRP 021300 AAA
TAFCRP
TAF AMD
KCRP 021326Z 0213/0312 01010KT 2SM -DZ BR OVC003
      TEMPO 0213/0216 1SM -DZ BR OVC002
     FM021800 02010KT 4SM -DZ OVC004
     FM030100 06008KT 2SM BR OVC004=



000
FTUS44 KCRP 021300 AAA
TAFALI
TAF AMD
KALI 021324Z 0213/0312 36008KT 1 1/2SM -DZ BR OVC003
      TEMPO 0213/0216 1/2SM FG OVC002
     FM021800 02008KT 3SM BR OVC004
     FM030100 06005KT 2SM BR OVC003=



000
FTUS44 KCRP 021300 AAA
TAFALI
TAF AMD
KALI 021324Z 0213/0312 36008KT 1 1/2SM -DZ BR OVC003
      TEMPO 0213/0216 1/2SM FG OVC002
     FM021800 02008KT 3SM BR OVC004
     FM030100 06005KT 2SM BR OVC003=



000
FTUS44 KCRP 021100
TAFCRP
TAF
KCRP 021130Z 0212/0312 01010KT 3SM -DZ BR OVC002
     FM021800 02010KT 4SM -DZ OVC004
     FM030100 06008KT 2SM BR OVC004=



000
FTUS44 KCRP 021100
TAFVCT
TAF
KVCT 021130Z 0212/0312 01008KT 4SM -DZ OVC004
     FM030200 05005KT 2SM BR OVC003=



000
FTUS44 KCRP 021100
TAFALI
TAF
KALI 021130Z 0212/0312 35008KT 1 1/2SM -DZ BR OVC003
      TEMPO 0212/0214 1/2SM FG
     FM021800 02008KT 3SM BR OVC004
     FM030100 06005KT 2SM BR OVC003=



000
FTUS44 KCRP 021100
TAFLRD
TAF
KLRD 021130Z 0212/0312 02008KT 3SM BR OVC003
     FM021800 04006KT P6SM OVC006
     FM030400 VRB04KT 4SM BR OVC004=



    US Dept of Commerce
    National Oceanic and Atmospheric Administration
    National Weather Service
    1325 East West Highway
    Silver Spring, MD 20910
    Page Author: NWS Internet Services Team
Disclaimer
Information Quality
Credits
Glossary
Privacy Policy
Freedom of Information Act (FOIA)
About Us
Career Opportunities